Main page
METAR-TAF:

METAR-TAF

Airports :

Sligo Airport

Sligo, Ireland

latitude: 54-16-49N, longitude: 8-35-57W, elevation: 3 m

Current weather observation

The report was made 1 hour and 43 minutes ago, at 19:30 UTC
Wind 9 kt from the Northwest
Temperature 6°C
Humidity 81%
Pressure 1024 hPa
Visibility 10 km or more
Few clouds at a height of 2100 ft
Broken clouds at a height of 3800 ft

METAR: EISG 111930Z 31009KT 9999 FEW021 BKN038 06/03 Q1024

Time: 22:13 (21:13 UTC)

Forecast

The report was made 1 hour and 13 minutes ago, at 20:00 UTC
Forecast valid from 11 at 21 UTC to 12 at 06 UTC
Wind 9 kt from the West/Northwest
Visibility 10 km or more
Few clouds at a height of 1200 ft
Broken clouds at a height of 3000 ft
Temporary
from 11 at 21 UTC to 12 at 06 UTC
Visibility: 4500 m
Broken clouds at a height of 1200 ft
light rain showers

TAF: EISG 112000Z 1121/1206 29009KT 9999 FEW012 BKN030 TEMPO 1121/1206 4500 -SHRA BKN012

Weather observations and forecasts of more than 4000 airports (METAR and TAF reports).

The available stations are represented by yellow and red dots on the map.

Hover mouse over dot to see the name of the station.

Then click to see weather observations and forecasts.

To change the map : click on the green buttons with a black cross to zoom in, on the green button with a dash to zoom out, or on the green arrows for adjacent maps.


METAR-TAF: